sensor_id;sensor_type;location;lat;lon;timestamp;P1;durP1;ratioP1;P2;durP2;ratioP2
11344;SDS011;5727;42.600;23.028;2023-10-08T00:01:07;16.70;;;7.47;;
11344;SDS011;5727;42.600;23.028;2023-10-08T00:03:40;16.43;;;8.17;;
11344;SDS011;5727;42.600;23.028;2023-10-08T00:06:13;18.37;;;8.13;;
11344;SDS011;5727;42.600;23.028;2023-10-08T00:08:40;15.53;;;7.93;;
11344;SDS011;5727;42.600;23.028;2023-10-08T00:11:07;15.87;;;7.20;;
11344;SDS011;5727;42.600;23.028;2023-10-08T00:13:36;15.67;;;7.27;;
11344;SDS011;5727;42.600;23.028;2023-10-08T00:16:06;11.73;;;7.73;;
11344;SDS011;5727;42.600;23.028;2023-10-08T00:18:35;12.70;;;7.87;;
11344;SDS011;5727;42.600;23.028;2023-10-08T00:21:04;18.10;;;8.03;;
11344;SDS011;5727;42.600;23.028;2023-10-08T00:23:44;18.70;;;8.13;;
11344;SDS011;5727;42.600;23.028;2023-10-08T00:26:17;15.50;;;8.40;;
11344;SDS011;5727;42.600;23.028;2023-10-08T00:28:52;16.50;;;7.67;;
11344;SDS011;5727;42.600;23.028;2023-10-08T00:31:21;15.93;;;7.80;;
11344;SDS011;5727;42.600;23.028;2023-10-08T00:33:49;17.40;;;8.10;;
11344;SDS011;5727;42.600;23.028;2023-10-08T00:36:17;14.33;;;7.87;;
11344;SDS011;5727;42.600;23.028;2023-10-08T00:38:45;13.93;;;7.33;;
11344;SDS011;5727;42.600;23.028;2023-10-08T00:41:14;14.23;;;7.33;;
11344;SDS011;5727;42.600;23.028;2023-10-08T00:43:41;14.50;;;7.90;;
11344;SDS011;5727;42.600;23.028;2023-10-08T00:46:10;15.37;;;7.40;;
11344;SDS011;5727;42.600;23.028;2023-10-08T00:48:44;13.07;;;7.40;;
11344;SDS011;5727;42.600;23.028;2023-10-08T00:51:13;17.87;;;7.17;;
11344;SDS011;5727;42.600;23.028;2023-10-08T00:53:57;13.93;;;7.40;;
11344;SDS011;5727;42.600;23.028;2023-10-08T00:56:31;14.53;;;7.43;;
11344;SDS011;5727;42.600;23.028;2023-10-08T00:59:15;13.43;;;7.23;;
11344;SDS011;5727;42.600;23.028;2023-10-08T01:01:49;15.70;;;8.10;;
11344;SDS011;5727;42.600;23.028;2023-10-08T01:04:17;13.73;;;7.63;;
11344;SDS011;5727;42.600;23.028;2023-10-08T01:06:48;17.57;;;7.90;;
11344;SDS011;5727;42.600;23.028;2023-10-08T01:09:21;13.90;;;7.13;;
11344;SDS011;5727;42.600;23.028;2023-10-08T01:12:10;16.67;;;7.63;;
11344;SDS011;5727;42.600;23.028;2023-10-08T01:14:43;15.97;;;8.33;;
11344;SDS011;5727;42.600;23.028;2023-10-08T01:17:12;17.27;;;8.17;;
11344;SDS011;5727;42.600;23.028;2023-10-08T01:19:44;27.30;;;8.47;;
11344;SDS011;5727;42.600;23.028;2023-10-08T01:22:16;17.30;;;8.23;;
11344;SDS011;5727;42.600;23.028;2023-10-08T01:24:44;16.90;;;7.97;;
11344;SDS011;5727;42.600;23.028;2023-10-08T01:27:13;24.47;;;8.70;;
11344;SDS011;5727;42.600;23.028;2023-10-08T01:29:46;22.33;;;7.53;;
11344;SDS011;5727;42.600;23.028;2023-10-08T01:32:15;17.77;;;7.40;;
11344;SDS011;5727;42.600;23.028;2023-10-08T01:34:42;21.63;;;7.83;;
11344;SDS011;5727;42.600;23.028;2023-10-08T01:37:12;15.77;;;7.60;;
11344;SDS011;5727;42.600;23.028;2023-10-08T01:39:43;16.57;;;7.57;;
11344;SDS011;5727;42.600;23.028;2023-10-08T01:42:11;18.27;;;8.30;;
11344;SDS011;5727;42.600;23.028;2023-10-08T01:44:43;18.77;;;7.83;;
11344;SDS011;5727;42.600;23.028;2023-10-08T01:47:12;20.20;;;8.47;;
11344;SDS011;5727;42.600;23.028;2023-10-08T01:49:39;24.03;;;9.10;;
11344;SDS011;5727;42.600;23.028;2023-10-08T01:52:08;19.37;;;7.53;;
11344;SDS011;5727;42.600;23.028;2023-10-08T01:54:39;18.87;;;7.50;;
11344;SDS011;5727;42.600;23.028;2023-10-08T01:57:07;22.53;;;8.00;;
11344;SDS011;5727;42.600;23.028;2023-10-08T01:59:34;21.63;;;7.60;;
11344;SDS011;5727;42.600;23.028;2023-10-08T02:02:04;18.73;;;8.60;;
11344;SDS011;5727;42.600;23.028;2023-10-08T02:04:32;19.50;;;8.57;;
11344;SDS011;5727;42.600;23.028;2023-10-08T02:07:00;24.20;;;8.57;;
11344;SDS011;5727;42.600;23.028;2023-10-08T02:09:29;17.23;;;7.37;;
11344;SDS011;5727;42.600;23.028;2023-10-08T02:11:58;13.00;;;7.50;;
11344;SDS011;5727;42.600;23.028;2023-10-08T02:14:26;18.30;;;8.10;;
11344;SDS011;5727;42.600;23.028;2023-10-08T02:16:56;17.83;;;8.20;;
11344;SDS011;5727;42.600;23.028;2023-10-08T02:19:31;13.17;;;6.87;;
11344;SDS011;5727;42.600;23.028;2023-10-08T02:21:58;17.77;;;7.67;;
11344;SDS011;5727;42.600;23.028;2023-10-08T02:24:25;17.90;;;7.97;;
11344;SDS011;5727;42.600;23.028;2023-10-08T02:26:52;15.07;;;6.70;;
11344;SDS011;5727;42.600;23.028;2023-10-08T02:29:20;17.67;;;8.00;;
11344;SDS011;5727;42.600;23.028;2023-10-08T02:31:49;17.50;;;8.70;;
11344;SDS011;5727;42.600;23.028;2023-10-08T02:34:15;17.03;;;7.77;;
11344;SDS011;5727;42.600;23.028;2023-10-08T02:36:44;15.63;;;8.23;;
11344;SDS011;5727;42.600;23.028;2023-10-08T02:39:12;18.70;;;8.90;;
11344;SDS011;5727;42.600;23.028;2023-10-08T02:41:42;18.80;;;9.60;;
11344;SDS011;5727;42.600;23.028;2023-10-08T02:44:11;17.97;;;9.33;;
11344;SDS011;5727;42.600;23.028;2023-10-08T02:46:39;14.50;;;9.07;;
11344;SDS011;5727;42.600;23.028;2023-10-08T02:49:08;22.83;;;10.10;;
11344;SDS011;5727;42.600;23.028;2023-10-08T02:51:39;19.53;;;9.47;;
11344;SDS011;5727;42.600;23.028;2023-10-08T02:54:07;15.27;;;9.60;;
11344;SDS011;5727;42.600;23.028;2023-10-08T02:56:42;13.10;;;8.57;;
11344;SDS011;5727;42.600;23.028;2023-10-08T02:59:10;14.30;;;8.83;;
11344;SDS011;5727;42.600;23.028;2023-10-08T03:01:38;17.13;;;8.30;;
11344;SDS011;5727;42.600;23.028;2023-10-08T03:04:06;18.03;;;7.63;;
11344;SDS011;5727;42.600;23.028;2023-10-08T03:06:44;19.17;;;9.07;;
11344;SDS011;5727;42.600;23.028;2023-10-08T03:09:16;16.60;;;8.10;;
11344;SDS011;5727;42.600;23.028;2023-10-08T03:11:48;16.93;;;7.77;;
11344;SDS011;5727;42.600;23.028;2023-10-08T03:14:16;14.70;;;7.87;;
11344;SDS011;5727;42.600;23.028;2023-10-08T03:16:48;16.47;;;7.37;;
11344;SDS011;5727;42.600;23.028;2023-10-08T03:19:17;19.50;;;8.57;;
11344;SDS011;5727;42.600;23.028;2023-10-08T03:21:47;18.17;;;8.00;;
11344;SDS011;5727;42.600;23.028;2023-10-08T03:24:16;16.03;;;8.53;;
11344;SDS011;5727;42.600;23.028;2023-10-08T03:27:03;14.23;;;7.43;;
11344;SDS011;5727;42.600;23.028;2023-10-08T03:29:38;15.77;;;8.17;;
11344;SDS011;5727;42.600;23.028;2023-10-08T03:32:07;17.77;;;8.70;;
11344;SDS011;5727;42.600;23.028;2023-10-08T03:34:38;15.90;;;8.37;;
11344;SDS011;5727;42.600;23.028;2023-10-08T03:37:09;18.37;;;8.77;;
11344;SDS011;5727;42.600;23.028;2023-10-08T03:39:40;19.73;;;9.37;;
11344;SDS011;5727;42.600;23.028;2023-10-08T03:42:26;16.23;;;8.87;;
11344;SDS011;5727;42.600;23.028;2023-10-08T03:44:59;23.43;;;8.10;;
11344;SDS011;5727;42.600;23.028;2023-10-08T03:47:35;14.93;;;7.70;;
11344;SDS011;5727;42.600;23.028;2023-10-08T03:50:04;15.93;;;8.93;;
11344;SDS011;5727;42.600;23.028;2023-10-08T03:52:36;22.83;;;8.93;;
11344;SDS011;5727;42.600;23.028;2023-10-08T03:55:04;12.97;;;8.03;;
11344;SDS011;5727;42.600;23.028;2023-10-08T03:57:46;17.27;;;8.73;;
11344;SDS011;5727;42.600;23.028;2023-10-08T04:00:22;15.27;;;8.93;;
11344;SDS011;5727;42.600;23.028;2023-10-08T04:02:56;16.33;;;8.43;;
11344;SDS011;5727;42.600;23.028;2023-10-08T04:05:26;20.53;;;9.83;;
11344;SDS011;5727;42.600;23.028;2023-10-08T04:07:59;18.50;;;9.43;;
11344;SDS011;5727;42.600;23.028;2023-10-08T04:10:42;17.63;;;8.40;;
11344;SDS011;5727;42.600;23.028;2023-10-08T04:13:29;16.90;;;9.27;;
11344;SDS011;5727;42.600;23.028;2023-10-08T04:15:56;17.80;;;9.03;;
11344;SDS011;5727;42.600;23.028;2023-10-08T04:18:23;19.63;;;9.00;;
11344;SDS011;5727;42.600;23.028;2023-10-08T04:20:50;16.60;;;9.03;;
11344;SDS011;5727;42.600;23.028;2023-10-08T04:23:31;17.50;;;8.17;;
11344;SDS011;5727;42.600;23.028;2023-10-08T04:26:03;16.57;;;8.27;;
11344;SDS011;5727;42.600;23.028;2023-10-08T04:28:31;17.43;;;9.00;;
11344;SDS011;5727;42.600;23.028;2023-10-08T04:31:00;20.10;;;9.50;;
11344;SDS011;5727;42.600;23.028;2023-10-08T04:33:40;22.40;;;9.73;;
11344;SDS011;5727;42.600;23.028;2023-10-08T04:36:08;18.63;;;9.17;;
11344;SDS011;5727;42.600;23.028;2023-10-08T04:38:36;15.73;;;9.07;;
11344;SDS011;5727;42.600;23.028;2023-10-08T04:41:05;20.27;;;9.73;;
11344;SDS011;5727;42.600;23.028;2023-10-08T04:43:35;20.70;;;8.70;;
11344;SDS011;5727;42.600;23.028;2023-10-08T04:46:04;23.13;;;8.87;;
11344;SDS011;5727;42.600;23.028;2023-10-08T04:48:43;16.00;;;9.47;;
11344;SDS011;5727;42.600;23.028;2023-10-08T04:51:10;18.97;;;8.87;;
11344;SDS011;5727;42.600;23.028;2023-10-08T04:53:40;22.13;;;8.97;;
11344;SDS011;5727;42.600;23.028;2023-10-08T04:56:09;18.30;;;9.13;;
11344;SDS011;5727;42.600;23.028;2023-10-08T04:58:42;18.37;;;9.70;;
11344;SDS011;5727;42.600;23.028;2023-10-08T05:01:12;19.50;;;10.17;;
11344;SDS011;5727;42.600;23.028;2023-10-08T05:03:46;16.97;;;9.27;;
11344;SDS011;5727;42.600;23.028;2023-10-08T05:06:32;21.37;;;9.13;;
11344;SDS011;5727;42.600;23.028;2023-10-08T05:09:27;17.90;;;9.60;;
11344;SDS011;5727;42.600;23.028;2023-10-08T05:12:12;22.60;;;9.83;;
11344;SDS011;5727;42.600;23.028;2023-10-08T05:14:53;16.03;;;9.43;;
11344;SDS011;5727;42.600;23.028;2023-10-08T05:17:42;16.83;;;9.20;;
11344;SDS011;5727;42.600;23.028;2023-10-08T05:20:23;17.70;;;9.20;;
11344;SDS011;5727;42.600;23.028;2023-10-08T05:23:09;17.23;;;8.43;;
11344;SDS011;5727;42.600;23.028;2023-10-08T05:25:47;15.90;;;9.27;;
11344;SDS011;5727;42.600;23.028;2023-10-08T05:28:34;19.70;;;8.23;;
11344;SDS011;5727;42.600;23.028;2023-10-08T05:31:06;16.23;;;8.47;;
11344;SDS011;5727;42.600;23.028;2023-10-08T05:33:57;22.97;;;9.50;;
11344;SDS011;5727;42.600;23.028;2023-10-08T05:36:39;16.03;;;8.93;;
11344;SDS011;5727;42.600;23.028;2023-10-08T05:39:26;19.47;;;10.47;;
11344;SDS011;5727;42.600;23.028;2023-10-08T05:42:06;19.63;;;9.37;;
11344;SDS011;5727;42.600;23.028;2023-10-08T05:44:38;18.13;;;9.30;;
11344;SDS011;5727;42.600;23.028;2023-10-08T05:47:08;22.87;;;9.47;;
11344;SDS011;5727;42.600;23.028;2023-10-08T05:49:49;22.83;;;9.10;;
11344;SDS011;5727;42.600;23.028;2023-10-08T05:52:53;20.97;;;9.70;;
11344;SDS011;5727;42.600;23.028;2023-10-08T05:55:30;27.07;;;13.20;;
11344;SDS011;5727;42.600;23.028;2023-10-08T05:58:04;22.73;;;11.17;;
11344;SDS011;5727;42.600;23.028;2023-10-08T06:00:49;19.70;;;11.17;;
11344;SDS011;5727;42.600;23.028;2023-10-08T06:03:47;19.00;;;9.67;;
11344;SDS011;5727;42.600;23.028;2023-10-08T06:06:25;24.50;;;9.80;;
11344;SDS011;5727;42.600;23.028;2023-10-08T06:09:03;18.00;;;8.80;;
11344;SDS011;5727;42.600;23.028;2023-10-08T06:12:00;18.37;;;8.30;;
11344;SDS011;5727;42.600;23.028;2023-10-08T06:14:37;22.07;;;10.27;;
11344;SDS011;5727;42.600;23.028;2023-10-08T06:17:31;21.93;;;8.87;;
11344;SDS011;5727;42.600;23.028;2023-10-08T06:20:21;22.67;;;9.57;;
11344;SDS011;5727;42.600;23.028;2023-10-08T06:22:51;21.30;;;8.50;;
11344;SDS011;5727;42.600;23.028;2023-10-08T06:25:26;16.50;;;8.90;;
11344;SDS011;5727;42.600;23.028;2023-10-08T06:27:53;18.97;;;9.07;;
11344;SDS011;5727;42.600;23.028;2023-10-08T06:30:25;21.43;;;10.20;;
11344;SDS011;5727;42.600;23.028;2023-10-08T06:32:54;26.33;;;10.50;;
11344;SDS011;5727;42.600;23.028;2023-10-08T06:35:22;24.00;;;10.67;;
11344;SDS011;5727;42.600;23.028;2023-10-08T06:37:52;21.23;;;11.87;;
11344;SDS011;5727;42.600;23.028;2023-10-08T06:40:24;24.50;;;11.87;;
11344;SDS011;5727;42.600;23.028;2023-10-08T06:43:07;20.37;;;11.33;;
11344;SDS011;5727;42.600;23.028;2023-10-08T06:45:44;25.73;;;11.20;;
11344;SDS011;5727;42.600;23.028;2023-10-08T06:48:12;23.23;;;10.70;;
11344;SDS011;5727;42.600;23.028;2023-10-08T06:50:45;17.80;;;11.50;;
11344;SDS011;5727;42.600;23.028;2023-10-08T06:53:12;22.63;;;10.13;;
11344;SDS011;5727;42.600;23.028;2023-10-08T06:55:40;28.07;;;13.40;;
11344;SDS011;5727;42.600;23.028;2023-10-08T06:58:07;23.63;;;11.40;;
11344;SDS011;5727;42.600;23.028;2023-10-08T07:00:37;24.27;;;10.97;;
11344;SDS011;5727;42.600;23.028;2023-10-08T07:03:06;25.87;;;11.27;;
11344;SDS011;5727;42.600;23.028;2023-10-08T07:05:35;22.10;;;10.80;;
11344;SDS011;5727;42.600;23.028;2023-10-08T07:08:08;19.60;;;10.67;;
11344;SDS011;5727;42.600;23.028;2023-10-08T07:10:38;21.47;;;10.33;;
11344;SDS011;5727;42.600;23.028;2023-10-08T07:13:06;21.87;;;10.73;;
11344;SDS011;5727;42.600;23.028;2023-10-08T07:15:33;23.57;;;11.10;;
11344;SDS011;5727;42.600;23.028;2023-10-08T07:18:04;22.23;;;10.57;;
11344;SDS011;5727;42.600;23.028;2023-10-08T07:20:39;22.90;;;11.33;;
11344;SDS011;5727;42.600;23.028;2023-10-08T07:23:07;21.43;;;10.63;;
11344;SDS011;5727;42.600;23.028;2023-10-08T07:25:46;25.60;;;10.40;;
11344;SDS011;5727;42.600;23.028;2023-10-08T07:28:17;22.50;;;10.23;;
11344;SDS011;5727;42.600;23.028;2023-10-08T07:30:45;23.03;;;9.53;;
11344;SDS011;5727;42.600;23.028;2023-10-08T07:33:14;24.73;;;10.57;;
11344;SDS011;5727;42.600;23.028;2023-10-08T07:35:46;21.47;;;10.30;;
11344;SDS011;5727;42.600;23.028;2023-10-08T07:38:22;20.70;;;11.10;;
11344;SDS011;5727;42.600;23.028;2023-10-08T07:40:52;20.70;;;10.50;;
11344;SDS011;5727;42.600;23.028;2023-10-08T07:43:20;29.70;;;12.33;;
11344;SDS011;5727;42.600;23.028;2023-10-08T07:45:47;26.47;;;12.17;;
11344;SDS011;5727;42.600;23.028;2023-10-08T07:48:14;25.00;;;12.03;;
11344;SDS011;5727;42.600;23.028;2023-10-08T07:50:42;28.70;;;12.07;;
11344;SDS011;5727;42.600;23.028;2023-10-08T07:53:13;25.57;;;11.37;;
11344;SDS011;5727;42.600;23.028;2023-10-08T07:55:45;23.93;;;11.40;;
11344;SDS011;5727;42.600;23.028;2023-10-08T07:58:13;24.23;;;11.50;;
11344;SDS011;5727;42.600;23.028;2023-10-08T08:00:41;25.00;;;11.53;;
11344;SDS011;5727;42.600;23.028;2023-10-08T08:03:17;26.00;;;10.63;;
11344;SDS011;5727;42.600;23.028;2023-10-08T08:05:47;24.27;;;10.70;;
11344;SDS011;5727;42.600;23.028;2023-10-08T08:08:19;22.27;;;10.33;;
11344;SDS011;5727;42.600;23.028;2023-10-08T08:10:48;23.40;;;10.27;;
11344;SDS011;5727;42.600;23.028;2023-10-08T08:13:23;22.83;;;10.40;;
11344;SDS011;5727;42.600;23.028;2023-10-08T08:15:53;26.47;;;10.73;;
11344;SDS011;5727;42.600;23.028;2023-10-08T08:18:23;23.07;;;9.93;;
11344;SDS011;5727;42.600;23.028;2023-10-08T08:20:58;23.00;;;10.10;;
11344;SDS011;5727;42.600;23.028;2023-10-08T08:23:29;31.03;;;10.80;;
11344;SDS011;5727;42.600;23.028;2023-10-08T08:25:57;24.53;;;11.43;;
11344;SDS011;5727;42.600;23.028;2023-10-08T08:28:37;21.93;;;10.23;;
11344;SDS011;5727;42.600;23.028;2023-10-08T08:31:05;21.03;;;10.00;;
11344;SDS011;5727;42.600;23.028;2023-10-08T08:33:38;18.67;;;9.67;;
11344;SDS011;5727;42.600;23.028;2023-10-08T08:36:19;23.07;;;10.70;;
11344;SDS011;5727;42.600;23.028;2023-10-08T08:38:48;18.80;;;8.70;;
11344;SDS011;5727;42.600;23.028;2023-10-08T08:41:15;22.03;;;8.67;;
11344;SDS011;5727;42.600;23.028;2023-10-08T08:43:44;16.23;;;7.77;;
11344;SDS011;5727;42.600;23.028;2023-10-08T08:46:14;18.17;;;7.27;;
11344;SDS011;5727;42.600;23.028;2023-10-08T08:48:42;17.47;;;7.07;;
11344;SDS011;5727;42.600;23.028;2023-10-08T08:51:10;13.40;;;6.10;;
11344;SDS011;5727;42.600;23.028;2023-10-08T08:53:38;13.83;;;6.50;;
11344;SDS011;5727;42.600;23.028;2023-10-08T08:56:08;8.73;;;4.63;;
11344;SDS011;5727;42.600;23.028;2023-10-08T08:58:36;7.47;;;4.57;;
11344;SDS011;5727;42.600;23.028;2023-10-08T09:01:05;14.23;;;5.90;;
11344;SDS011;5727;42.600;23.028;2023-10-08T09:03:35;11.43;;;5.27;;
11344;SDS011;5727;42.600;23.028;2023-10-08T09:06:02;11.33;;;5.10;;
11344;SDS011;5727;42.600;23.028;2023-10-08T09:08:32;11.23;;;5.93;;
11344;SDS011;5727;42.600;23.028;2023-10-08T09:11:00;7.50;;;4.60;;
11344;SDS011;5727;42.600;23.028;2023-10-08T09:13:31;9.10;;;5.00;;
11344;SDS011;5727;42.600;23.028;2023-10-08T09:16:02;6.80;;;3.20;;
11344;SDS011;5727;42.600;23.028;2023-10-08T09:18:33;6.97;;;3.43;;
11344;SDS011;5727;42.600;23.028;2023-10-08T09:23:49;6.93;;;3.73;;
11344;SDS011;5727;42.600;23.028;2023-10-08T09:26:16;7.13;;;3.73;;
11344;SDS011;5727;42.600;23.028;2023-10-08T09:28:46;7.90;;;3.80;;
11344;SDS011;5727;42.600;23.028;2023-10-08T09:31:14;7.43;;;3.27;;
11344;SDS011;5727;42.600;23.028;2023-10-08T09:33:42;7.50;;;2.90;;
11344;SDS011;5727;42.600;23.028;2023-10-08T09:36:10;6.90;;;2.97;;
11344;SDS011;5727;42.600;23.028;2023-10-08T09:38:44;8.33;;;3.30;;
11344;SDS011;5727;42.600;23.028;2023-10-08T09:41:13;7.07;;;2.80;;
11344;SDS011;5727;42.600;23.028;2023-10-08T09:43:40;7.27;;;3.40;;
11344;SDS011;5727;42.600;23.028;2023-10-08T09:46:16;5.27;;;2.83;;
11344;SDS011;5727;42.600;23.028;2023-10-08T09:48:48;7.73;;;2.80;;
11344;SDS011;5727;42.600;23.028;2023-10-08T09:51:18;5.73;;;2.93;;
11344;SDS011;5727;42.600;23.028;2023-10-08T09:53:48;4.87;;;2.70;;
11344;SDS011;5727;42.600;23.028;2023-10-08T09:56:19;5.10;;;2.63;;
11344;SDS011;5727;42.600;23.028;2023-10-08T09:58:46;5.00;;;2.17;;
11344;SDS011;5727;42.600;23.028;2023-10-08T10:01:16;3.93;;;2.20;;
11344;SDS011;5727;42.600;23.028;2023-10-08T10:03:45;3.47;;;2.10;;
11344;SDS011;5727;42.600;23.028;2023-10-08T10:06:12;5.50;;;2.13;;
11344;SDS011;5727;42.600;23.028;2023-10-08T10:08:41;4.60;;;2.47;;
11344;SDS011;5727;42.600;23.028;2023-10-08T10:11:08;4.13;;;2.30;;
11344;SDS011;5727;42.600;23.028;2023-10-08T10:13:41;4.17;;;2.50;;
11344;SDS011;5727;42.600;23.028;2023-10-08T10:16:09;5.80;;;2.47;;
11344;SDS011;5727;42.600;23.028;2023-10-08T10:18:39;4.67;;;2.30;;
11344;SDS011;5727;42.600;23.028;2023-10-08T10:21:24;6.07;;;2.20;;
11344;SDS011;5727;42.600;23.028;2023-10-08T10:23:53;4.93;;;2.07;;
11344;SDS011;5727;42.600;23.028;2023-10-08T10:26:22;3.30;;;1.90;;
11344;SDS011;5727;42.600;23.028;2023-10-08T10:31:48;4.03;;;1.60;;
11344;SDS011;5727;42.600;23.028;2023-10-08T10:34:22;4.10;;;2.20;;
11344;SDS011;5727;42.600;23.028;2023-10-08T10:36:52;4.87;;;1.80;;
11344;SDS011;5727;42.600;23.028;2023-10-08T10:39:24;5.27;;;1.70;;
11344;SDS011;5727;42.600;23.028;2023-10-08T10:41:57;6.60;;;2.10;;
11344;SDS011;5727;42.600;23.028;2023-10-08T10:44:26;3.90;;;1.43;;
11344;SDS011;5727;42.600;23.028;2023-10-08T10:46:55;6.73;;;1.93;;
11344;SDS011;5727;42.600;23.028;2023-10-08T10:49:50;4.00;;;1.50;;
11344;SDS011;5727;42.600;23.028;2023-10-08T10:52:21;4.13;;;1.30;;
11344;SDS011;5727;42.600;23.028;2023-10-08T10:54:58;5.63;;;1.50;;
11344;SDS011;5727;42.600;23.028;2023-10-08T10:57:43;3.37;;;1.50;;
11344;SDS011;5727;42.600;23.028;2023-10-08T11:00:10;4.10;;;1.43;;
11344;SDS011;5727;42.600;23.028;2023-10-08T11:03:05;4.13;;;1.40;;
11344;SDS011;5727;42.600;23.028;2023-10-08T11:05:43;5.27;;;2.00;;
11344;SDS011;5727;42.600;23.028;2023-10-08T11:08:16;5.23;;;1.60;;
11344;SDS011;5727;42.600;23.028;2023-10-08T11:10:45;4.23;;;1.30;;
11344;SDS011;5727;42.600;23.028;2023-10-08T11:13:16;3.60;;;1.50;;
11344;SDS011;5727;42.600;23.028;2023-10-08T11:15:45;7.23;;;2.10;;
11344;SDS011;5727;42.600;23.028;2023-10-08T11:18:17;7.60;;;1.70;;
11344;SDS011;5727;42.600;23.028;2023-10-08T11:20:47;5.60;;;1.93;;
11344;SDS011;5727;42.600;23.028;2023-10-08T11:23:32;6.70;;;2.00;;
11344;SDS011;5727;42.600;23.028;2023-10-08T11:26:01;4.23;;;1.47;;
11344;SDS011;5727;42.600;23.028;2023-10-08T11:28:29;6.60;;;1.57;;
11344;SDS011;5727;42.600;23.028;2023-10-08T11:30:59;4.97;;;1.43;;
11344;SDS011;5727;42.600;23.028;2023-10-08T11:33:33;5.23;;;2.03;;
11344;SDS011;5727;42.600;23.028;2023-10-08T11:36:03;7.50;;;2.30;;
11344;SDS011;5727;42.600;23.028;2023-10-08T11:38:38;4.93;;;2.27;;
11344;SDS011;5727;42.600;23.028;2023-10-08T11:41:12;7.10;;;1.93;;
11344;SDS011;5727;42.600;23.028;2023-10-08T11:43:47;6.70;;;2.20;;
11344;SDS011;5727;42.600;23.028;2023-10-08T11:46:19;4.20;;;1.73;;
11344;SDS011;5727;42.600;23.028;2023-10-08T11:48:51;6.83;;;1.73;;
11344;SDS011;5727;42.600;23.028;2023-10-08T11:51:19;5.97;;;2.23;;
11344;SDS011;5727;42.600;23.028;2023-10-08T11:53:49;3.33;;;1.47;;
11344;SDS011;5727;42.600;23.028;2023-10-08T11:56:16;6.43;;;2.07;;
11344;SDS011;5727;42.600;23.028;2023-10-08T11:58:47;5.40;;;1.70;;
11344;SDS011;5727;42.600;23.028;2023-10-08T12:01:14;5.80;;;1.83;;
11344;SDS011;5727;42.600;23.028;2023-10-08T12:03:43;9.40;;;2.53;;
11344;SDS011;5727;42.600;23.028;2023-10-08T12:06:10;11.60;;;2.40;;
11344;SDS011;5727;42.600;23.028;2023-10-08T12:08:42;9.83;;;1.67;;
11344;SDS011;5727;42.600;23.028;2023-10-08T12:11:12;7.80;;;1.37;;
11344;SDS011;5727;42.600;23.028;2023-10-08T12:13:39;11.20;;;2.93;;
11344;SDS011;5727;42.600;23.028;2023-10-08T12:16:12;8.83;;;1.93;;
11344;SDS011;5727;42.600;23.028;2023-10-08T12:18:43;6.33;;;1.90;;
11344;SDS011;5727;42.600;23.028;2023-10-08T12:21:13;7.27;;;1.90;;
11344;SDS011;5727;42.600;23.028;2023-10-08T12:23:44;5.33;;;1.73;;
11344;SDS011;5727;42.600;23.028;2023-10-08T12:26:11;10.90;;;1.80;;
11344;SDS011;5727;42.600;23.028;2023-10-08T12:28:41;10.13;;;2.33;;
11344;SDS011;5727;42.600;23.028;2023-10-08T12:31:10;9.70;;;2.30;;
11344;SDS011;5727;42.600;23.028;2023-10-08T12:33:37;8.00;;;1.80;;
11344;SDS011;5727;42.600;23.028;2023-10-08T12:36:05;6.97;;;1.90;;
11344;SDS011;5727;42.600;23.028;2023-10-08T12:38:37;8.60;;;2.10;;
11344;SDS011;5727;42.600;23.028;2023-10-08T12:41:05;6.83;;;2.43;;
11344;SDS011;5727;42.600;23.028;2023-10-08T12:43:37;7.47;;;1.80;;
11344;SDS011;5727;42.600;23.028;2023-10-08T12:46:07;8.67;;;1.60;;
11344;SDS011;5727;42.600;23.028;2023-10-08T12:48:36;11.30;;;2.13;;
11344;SDS011;5727;42.600;23.028;2023-10-08T12:51:03;9.67;;;1.97;;
11344;SDS011;5727;42.600;23.028;2023-10-08T12:53:32;6.63;;;1.70;;
11344;SDS011;5727;42.600;23.028;2023-10-08T12:56:02;6.30;;;1.70;;
11344;SDS011;5727;42.600;23.028;2023-10-08T12:58:34;6.80;;;1.60;;
11344;SDS011;5727;42.600;23.028;2023-10-08T13:01:06;8.53;;;1.70;;
11344;SDS011;5727;42.600;23.028;2023-10-08T13:03:35;8.07;;;2.23;;
11344;SDS011;5727;42.600;23.028;2023-10-08T13:06:06;8.00;;;1.80;;
11344;SDS011;5727;42.600;23.028;2023-10-08T13:08:36;5.97;;;1.50;;
11344;SDS011;5727;42.600;23.028;2023-10-08T13:11:05;5.70;;;2.13;;
11344;SDS011;5727;42.600;23.028;2023-10-08T13:13:33;7.50;;;2.43;;
11344;SDS011;5727;42.600;23.028;2023-10-08T13:16:01;6.07;;;2.00;;
11344;SDS011;5727;42.600;23.028;2023-10-08T13:18:33;5.57;;;2.30;;
11344;SDS011;5727;42.600;23.028;2023-10-08T13:21:02;5.33;;;1.77;;
11344;SDS011;5727;42.600;23.028;2023-10-08T13:23:30;5.17;;;1.80;;
11344;SDS011;5727;42.600;23.028;2023-10-08T13:26:00;6.43;;;2.03;;
11344;SDS011;5727;42.600;23.028;2023-10-08T13:28:29;6.47;;;1.83;;
11344;SDS011;5727;42.600;23.028;2023-10-08T13:31:00;5.20;;;2.23;;
11344;SDS011;5727;42.600;23.028;2023-10-08T13:33:34;7.77;;;1.90;;
11344;SDS011;5727;42.600;23.028;2023-10-08T13:36:04;8.57;;;1.97;;
11344;SDS011;5727;42.600;23.028;2023-10-08T13:38:33;11.30;;;2.60;;
11344;SDS011;5727;42.600;23.028;2023-10-08T13:41:00;9.77;;;2.23;;
11344;SDS011;5727;42.600;23.028;2023-10-08T13:43:32;4.93;;;1.83;;
11344;SDS011;5727;42.600;23.028;2023-10-08T13:46:05;6.50;;;1.67;;
11344;SDS011;5727;42.600;23.028;2023-10-08T13:48:38;7.20;;;1.53;;
11344;SDS011;5727;42.600;23.028;2023-10-08T13:51:06;6.43;;;1.80;;
11344;SDS011;5727;42.600;23.028;2023-10-08T13:53:38;6.80;;;1.73;;
11344;SDS011;5727;42.600;23.028;2023-10-08T13:56:06;6.27;;;1.90;;
11344;SDS011;5727;42.600;23.028;2023-10-08T13:58:36;5.57;;;1.40;;
11344;SDS011;5727;42.600;23.028;2023-10-08T14:01:08;6.90;;;2.40;;
11344;SDS011;5727;42.600;23.028;2023-10-08T14:03:44;6.53;;;2.10;;
11344;SDS011;5727;42.600;23.028;2023-10-08T14:06:12;5.60;;;1.33;;
11344;SDS011;5727;42.600;23.028;2023-10-08T14:08:39;7.67;;;2.83;;
11344;SDS011;5727;42.600;23.028;2023-10-08T14:11:09;7.47;;;2.00;;
11344;SDS011;5727;42.600;23.028;2023-10-08T14:13:38;8.27;;;2.20;;
11344;SDS011;5727;42.600;23.028;2023-10-08T14:16:08;8.53;;;2.10;;
11344;SDS011;5727;42.600;23.028;2023-10-08T14:18:36;6.00;;;1.87;;
11344;SDS011;5727;42.600;23.028;2023-10-08T14:21:07;5.67;;;1.50;;
11344;SDS011;5727;42.600;23.028;2023-10-08T14:23:35;7.57;;;2.23;;
11344;SDS011;5727;42.600;23.028;2023-10-08T14:26:05;8.87;;;1.60;;
11344;SDS011;5727;42.600;23.028;2023-10-08T14:28:33;5.93;;;1.40;;
11344;SDS011;5727;42.600;23.028;2023-10-08T14:31:10;6.83;;;1.93;;
11344;SDS011;5727;42.600;23.028;2023-10-08T14:33:40;11.47;;;2.03;;
11344;SDS011;5727;42.600;23.028;2023-10-08T14:36:21;6.70;;;1.77;;
11344;SDS011;5727;42.600;23.028;2023-10-08T14:39:06;8.17;;;1.67;;
11344;SDS011;5727;42.600;23.028;2023-10-08T14:41:50;9.40;;;2.03;;
11344;SDS011;5727;42.600;23.028;2023-10-08T14:44:34;8.27;;;1.90;;
11344;SDS011;5727;42.600;23.028;2023-10-08T14:47:04;8.83;;;2.10;;
11344;SDS011;5727;42.600;23.028;2023-10-08T14:49:32;6.57;;;1.87;;
11344;SDS011;5727;42.600;23.028;2023-10-08T14:52:00;6.77;;;1.70;;
11344;SDS011;5727;42.600;23.028;2023-10-08T14:54:29;8.43;;;1.50;;
11344;SDS011;5727;42.600;23.028;2023-10-08T14:56:56;9.97;;;2.33;;
11344;SDS011;5727;42.600;23.028;2023-10-08T14:59:23;9.23;;;1.83;;
11344;SDS011;5727;42.600;23.028;2023-10-08T15:01:53;5.50;;;1.90;;
11344;SDS011;5727;42.600;23.028;2023-10-08T15:04:21;13.23;;;1.83;;
11344;SDS011;5727;42.600;23.028;2023-10-08T15:06:48;5.37;;;1.40;;
11344;SDS011;5727;42.600;23.028;2023-10-08T15:09:15;5.90;;;2.20;;
11344;SDS011;5727;42.600;23.028;2023-10-08T15:11:46;5.33;;;1.70;;